Latest Coastal Weather Observations for Portland Airport

IDV60701

Issued at 4:31 pm EST Wednesday 1 July 2015 (issued every 10 minutes, with the page automatically refreshed every 10 minutes)

About coastal observations | Map of coastal stations | Coastal observations for VIC | Marine services | Other Formats
Station Details ID: 090171 Name: CASHMORE AIRPORT Lat: -38.31 Lon: 141.47 Height: 80.9 m
Data from the previous 72 hours. | See also: Recent months at Portland Airport
Date/Time
EST
Temp

°C
Wind Pressure Rain
since 9am
mm
Weather Cloud Vis
km
Sea
Height
m
Swell
Dir
 
Speed
knots
Gust
knots
hPa Trend Height
m
Period
s
Dir
01/04:30pm 12.9 WNW 15 19 1021.2 - 0.0 - Partly cloudy 10 - - - -
01/04:01pm 13.0 WNW 17 27 1021.6 - 0.0 - Partly cloudy 10 - - - -
01/04:00pm 13.0 WNW 18 27 1021.6 - 0.0 - Partly cloudy 10 - - - -
01/03:30pm 13.4 NW 17 22 1021.6 - 0.0 - Partly cloudy 10 - - - -
01/03:00pm 13.1 NW 13 21 1022.0 - 0.0 - Cloudy 10 - - - -
01/02:30pm 13.3 NW 14 24 1022.0 - 0.0 - Partly cloudy 10 - - - -
01/02:21pm 13.3 NW 15 25 1022.2 - 0.0 - Partly cloudy 10 - - - -
01/02:00pm 13.8 NW 16 23 1022.4 - 0.0 - Partly cloudy 10 - - - -
01/01:52pm 13.6 NW 15 25 1022.6 - 0.0 - Partly cloudy 10 - - - -
01/01:30pm 12.7 NW 12 18 1023.0 - 0.0 - Partly cloudy 10 - - - -
01/01:00pm 13.2 NW 15 20 1023.6 - 0.0 - Partly cloudy 10 - - - -
01/12:30pm 13.1 NW 12 19 1024.1 - 0.0 - Partly cloudy 10 - - - -
01/12:00pm 13.2 NNW 11 16 1024.5 - 0.0 - Mostly clear 10 - - - -
01/11:30am 12.7 NNW 11 17 1025.2 - 0.0 - - 10 - - - -
01/11:00am 11.7 NNW 11 17 1025.7 - 0.0 - - 10 - - - -
01/10:30am 10.6 NNW 11 15 1025.9 - 0.0 - - 10 - - - -
01/10:00am 9.8 NNW 11 15 1026.0 - 0.0 - - 10 - - - -
01/09:31am 8.5 NNW 9 12 1026.4 - 0.0 - Partly cloudy 10 - - - -
01/09:30am 8.5 NNW 9 12 1026.4 - 0.0 - Partly cloudy 10 - - - -
01/09:17am 8.4 NNW 8 11 1026.6 - 0.0 - Partly cloudy 10 - - - -
01/09:00am 8.0 NNW 8 11 1026.7 - 1.4 - Cloudy 10 - - - -
01/08:50am 8.2 NNW 8 13 1026.7 - 1.4 - Partly cloudy 10 - - - -
01/08:30am 8.3 NNW 9 14 1026.8 - 1.4 - Partly cloudy 6 - - - -
01/08:28am 8.3 NW 9 14 1026.8 - 1.4 - Partly cloudy 6 - - - -
01/08:00am 8.1 NNW 9 12 1026.9 - 1.4 - Partly cloudy 10 - - - -
01/07:30am 7.8 NNW 10 13 1026.8 - 1.4 - Partly cloudy 10 - - - -
01/07:00am 7.3 NNW 11 15 1026.6 - 1.4 - Partly cloudy 10 - - - -
01/06:30am 7.1 NNW 8 10 1026.6 - 1.4 - Partly cloudy 10 - - - -
01/06:00am 8.3 NNW 9 12 1026.6 - 1.4 - Partly cloudy 10 - - - -
01/05:30am 8.8 NNW 9 15 1026.5 - 1.4 - Cloudy 10 - - - -
01/05:00am 8.8 NNW 9 13 1026.8 - 1.4 - Cloudy 10 - - - -
01/04:30am 8.5 NNW 9 12 1026.9 - 1.4 - Cloudy 10 - - - -
01/04:00am 8.1 NNW 8 11 1027.1 - 1.4 - Cloudy 10 - - - -
01/03:30am 7.6 N 7 9 1027.1 - 1.4 - Partly cloudy 10 - - - -
01/03:00am 8.2 NNW 9 11 1027.4 - 1.4 - Mostly cloudy 10 - - - -
01/02:30am 8.1 NNW 7 9 1027.6 - 1.4 - Cloudy 10 - - - -
01/02:00am 8.2 NNW 7 9 1027.6 - 1.4 - Partly cloudy 10 - - - -
01/01:30am 8.8 NNW 7 9 1027.7 - 1.4 - Cloudy 10 - - - -
01/01:00am 9.1 NNW 6 8 1028.1 - 1.4 - Partly cloudy 10 - - - -
01/12:30am 9.4 WNW 7 9 1028.3 - 1.4 - Partly cloudy 10 - - - -
01/12:00am 9.7 NW 8 12 1028.5 - 1.4 - Cloudy 10 - - - -
 
Date/Time
EST
Temp

°C
Wind Pressure Rain
since 9am
mm
Weather Cloud Vis
km
Sea
Height
m
Swell
Dir
 
Speed
knots
Gust
knots
hPa Trend Height
m
Period
s
Dir
30/11:30pm 9.5 NW 6 8 1028.4 - 1.4 - Cloudy 10 - - - -
30/11:00pm 9.2 NNW 7 8 1028.6 - 1.4 - Cloudy 10 - - - -
30/10:30pm 9.3 NNW 6 8 1028.8 - 1.4 - Cloudy 10 - - - -
30/10:00pm 9.3 NNW 3 5 1029.0 - 1.4 - Partly cloudy 10 - - - -
30/09:30pm 9.3 NNW 4 6 1028.9 - 1.2 - Cloudy 10 - - - -
30/09:00pm 9.5 WSW 3 5 1028.9 - 1.2 - Cloudy 10 - - - -
30/08:30pm 9.9 WSW 9 13 1028.9 - 1.2 - Partly cloudy 10 - - - -
30/08:00pm 9.1 NW 4 5 1028.8 - 1.2 - Cloudy 10 - - - -
30/07:30pm 9.0 NW 4 5 1028.8 - 1.2 - Cloudy 10 - - - -
30/07:00pm 9.0 NNW 5 6 1028.6 - 1.2 - Cloudy 10 - - - -
30/06:30pm 8.2 NNW 4 5 1028.5 - 1.2 - Cloudy 10 - - - -
30/06:00pm 8.7 NNW 3 5 1028.4 - 1.2 - Mostly cloudy 10 - - - -
30/05:30pm 9.6 NNW 4 6 1028.2 - 1.2 - Partly cloudy 10 - - - -
30/05:00pm 10.4 SW 1 3 1028.2 - 1.2 - Cloudy 10 - - - -
30/04:30pm 10.4 SW 3 4 1028.2 - 1.2 - Partly cloudy 10 - - - -
30/04:21pm 10.1 SSW 4 5 1028.1 - 1.2 - Partly cloudy 10 - - - -
30/04:00pm 10.1 W 8 12 1028.1 - 1.2 - Partly cloudy 5 - - - -
30/03:56pm 10.4 W 6 10 1028.1 - 1.2 - Partly cloudy 6 - - - -
30/03:47pm 9.9 W 7 8 1028.1 - 1.0 - Partly cloudy 10 - - - -
30/03:36pm 10.2 NW 6 9 1028.0 - 0.4 - Partly cloudy 6 - - - -
30/03:30pm 10.2 NW 7 9 1028.0 - 0.4 - Partly cloudy 10 - - - -
30/03:00pm 10.1 WNW 10 13 1028.0 - 0.0 - Cloudy 10 - - - -
30/02:30pm 10.3 WNW 6 9 1028.0 - 0.0 - Partly cloudy 10 - - - -
30/02:00pm 10.4 W 8 11 1028.3 - 0.0 - Partly cloudy 10 - - - -
30/01:30pm 10.7 WSW 7 9 1028.4 - 0.0 - Partly cloudy 7 - - - -
30/01:26pm 10.8 WSW 8 11 1028.5 - 0.0 - Partly cloudy 9 - - - -
30/01:00pm 10.9 WSW 11 15 1028.6 - 0.0 - Partly cloudy 6 - - - -
30/12:59pm 11.1 WSW 11 15 1028.6 - 0.0 - Partly cloudy 6 - - - -
30/12:30pm 12.6 W 13 15 1028.7 - 0.0 - Partly cloudy 10 - - - -
30/12:00pm 12.1 WNW 11 14 1029.0 - 0.0 - Cloudy 10 - - - -
30/11:30am 11.7 WNW 9 12 1029.4 - 0.0 - Cloudy 10 - - - -
30/11:00am 11.4 WNW 8 11 1029.7 - 0.0 - Cloudy 10 - - - -
30/10:30am 10.9 WNW 9 12 1029.7 - 0.0 - Cloudy 10 - - - -
30/10:00am 11.7 NW 4 6 1029.6 - 0.0 - Partly cloudy 10 - - - -
30/09:30am 9.9 NW 4 5 1029.4 - 0.0 - Partly cloudy 10 - - - -
30/09:00am 9.2 NW 1 4 1029.4 - 0.0 - Cloudy 10 - - - -
30/08:30am 9.0 NW 1 3 1029.4 - 0.0 - Cloudy 10 - - - -
30/08:00am 9.1 CALM 0 0 1029.2 - 0.0 - Cloudy 10 - - - -
30/07:30am 9.4 NW 5 8 1029.1 - 0.0 - Cloudy 10 - - - -
30/07:00am 9.4 NW 5 7 1028.9 - 0.0 - Cloudy 10 - - - -
30/06:30am 9.2 NW 5 7 1028.8 - 0.0 - Cloudy 10 - - - -
30/06:00am 8.9 NW 4 4 1028.5 - 0.0 - Cloudy 10 - - - -
30/05:30am 8.9 NW 5 6 1028.3 - 0.0 - Cloudy 10 - - - -
30/05:00am 9.0 NW 3 5 1028.4 - 0.0 - Cloudy 10 - - - -
30/04:30am 9.3 NW 4 5 1028.4 - 0.0 - Cloudy 10 - - - -
30/04:00am 9.7 NW 5 7 1028.6 - 0.0 - Cloudy 10 - - - -
30/03:30am 9.5 WNW 6 8 1028.7 - 0.0 - Partly cloudy 10 - - - -
30/03:00am 9.3 NW 2 5 1028.8 - 0.0 - Cloudy 10 - - - -
30/02:30am 9.4 NW 1 4 1028.9 - 0.0 - Cloudy 10 - - - -
30/02:00am 9.5 NW 3 5 1029.0 - 0.0 - Cloudy 10 - - - -
30/01:30am 9.6 CALM 0 0 1029.3 - 0.0 - Cloudy 10 - - - -
30/01:00am 9.6 NW 4 5 1029.5 - 0.0 - Cloudy 10 - - - -
30/12:30am 9.7 NW 4 5 1029.7 - 0.0 - Cloudy 10 - - - -
30/12:00am 9.8 CALM 0 0 1029.9 - 0.0 - Cloudy 10 - - - -
 
Date/Time
EST
Temp

°C
Wind Pressure Rain
since 9am
mm
Weather Cloud Vis
km
Sea
Height
m
Swell
Dir
 
Speed
knots
Gust
knots
hPa Trend Height
m
Period
s
Dir
29/11:30pm 10.0 NW 1 3 1030.1 - 0.0 - Cloudy 10 - - - -
29/11:00pm 9.9 CALM 0 0 1030.1 - 0.0 - Cloudy 10 - - - -
29/10:30pm 10.0 NW 4 5 1030.3 - 0.0 - Cloudy 10 - - - -
29/10:00pm 10.1 NW 4 5 1030.5 - 0.0 - Cloudy 10 - - - -
29/09:30pm 10.3 NW 4 5 1030.5 - 0.0 - Cloudy 10 - - - -
29/09:00pm 10.1 WNW 1 5 1030.6 - 0.0 - Cloudy 10 - - - -
29/08:30pm 10.5 CALM 0 0 1030.7 - 0.0 - Cloudy 10 - - - -
29/08:00pm 10.8 CALM 0 0 1030.7 - 0.0 - Cloudy 10 - - - -
29/07:30pm 10.5 W 2 4 1030.8 - 0.0 - Cloudy 10 - - - -
29/07:00pm 10.9 W 2 4 1030.8 - 0.0 - Cloudy 10 - - - -
29/06:30pm 10.6 CALM 0 0 1030.7 - 0.0 - Cloudy 10 - - - -
29/06:00pm 10.8 CALM 0 3 1030.7 - 0.0 - Cloudy 10 - - - -
29/05:30pm 11.1 CALM 0 0 1030.7 - 0.0 - Cloudy 10 - - - -
29/05:00pm 11.4 WNW 1 3 1030.7 - 0.0 - Cloudy 10 - - - -
29/04:30pm 11.6 WNW 3 4 1030.8 - 0.0 - Cloudy 10 - - - -
29/04:00pm 11.6 WNW 4 5 1031.0 - 0.0 - Cloudy 10 - - - -
29/03:30pm 11.7 WNW 6 9 1031.1 - 0.0 - Cloudy 10 - - - -
29/03:00pm 11.8 NW 6 7 1031.2 - 0.0 - Cloudy 10 - - - -
29/02:30pm 11.9 W 6 9 1031.3 - 0.0 - Cloudy 10 - - - -
29/02:00pm 12.2 WNW 5 7 1031.4 - 0.0 - Cloudy 10 - - - -
29/01:30pm 12.4 WNW 6 8 1031.8 - 0.0 - Partly cloudy 10 - - - -
29/01:00pm 12.3 WNW 7 9 1032.1 - 0.0 - Cloudy 10 - - - -
29/12:30pm 12.4 WNW 7 9 1032.5 - 0.0 - Cloudy 10 - - - -
29/12:00pm 12.2 WNW 7 9 1032.8 - 0.0 - Cloudy 10 - - - -
29/11:30am 12.5 NW 6 8 1033.1 - 0.0 - Cloudy 10 - - - -
29/11:00am 12.4 NW 4 6 1033.3 - 0.0 - Cloudy 10 - - - -
29/10:30am 11.5 NW 5 7 1033.6 - 0.0 - Cloudy 10 - - - -
29/10:00am 10.7 NNW 5 6 1033.6 - 0.0 - Cloudy 10 - - - -
29/09:30am 10.3 NNW 3 5 1033.4 - 0.0 - Cloudy 10 - - - -
29/09:00am 10.0 NNW 4 5 1033.4 - 0.2 - Cloudy 10 - - - -
29/08:30am 9.9 NNW 3 4 1033.3 - 0.2 - Cloudy 10 - - - -
29/08:00am 9.7 NNW 3 5 1033.1 - 0.2 - Partly cloudy 10 - - - -
29/07:30am 9.8 NW 3 4 1033.1 - 0.2 - Cloudy 10 - - - -
29/07:00am 9.8 NNW 5 6 1032.8 - 0.2 - Cloudy 10 - - - -
29/06:30am 9.8 NNW 5 6 1032.8 - 0.2 - Cloudy 10 - - - -
29/06:00am 9.9 NNW 4 6 1032.8 - 0.0 - Cloudy 10 - - - -
29/05:30am 9.9 NNW 4 5 1032.7 - 0.0 - Cloudy 10 - - - -
29/05:00am 9.9 NNW 5 7 1032.7 - 0.0 - Partly cloudy 10 - - - -
29/04:30am 10.0 N 5 6 1032.8 - 0.0 - Cloudy 10 - - - -
29/04:00am 10.1 N 5 8 1032.9 - 0.0 - Cloudy 10 - - - -
29/03:30am 10.3 NNW 4 7 1033.1 - 0.0 - Cloudy 10 - - - -
29/03:00am 10.8 WNW 3 5 1033.2 - 0.0 - Cloudy 10 - - - -
29/02:30am 10.7 NNW 4 5 1033.2 - 0.0 - Cloudy 10 - - - -
29/02:00am 11.1 W 5 7 1033.3 - 0.0 - Cloudy 10 - - - -
29/01:30am 10.9 W 4 5 1033.3 - 0.0 - Cloudy 10 - - - -
29/01:00am 10.9 W 5 6 1033.4 - 0.0 - Cloudy 10 - - - -
29/12:30am 10.9 W 4 6 1033.5 - 0.0 - Cloudy 10 - - - -
29/12:00am 10.8 WSW 5 6 1033.7 - 0.0 - Cloudy 10 - - - -
 
Date/Time
EST
Temp

°C
Wind Pressure Rain
since 9am
mm
Weather Cloud Vis
km
Sea
Height
m
Swell
Dir
 
Speed
knots
Gust
knots
hPa Trend Height
m
Period
s
Dir
28/11:30pm 10.9 WSW 7 10 1033.7 - 0.0 - Cloudy 10 - - - -
28/11:00pm 10.8 WSW 7 9 1033.8 - 0.0 - Cloudy 10 - - - -
28/10:30pm 11.0 WSW 8 14 1033.7 - 0.0 - Cloudy 10 - - - -
28/10:00pm 10.5 WSW 4 5 1033.9 - 0.0 - Cloudy 10 - - - -
28/09:30pm 10.6 WSW 5 7 1034.2 - 0.0 - Cloudy 10 - - - -
28/09:00pm 10.6 SW 4 6 1034.3 - 0.0 - Cloudy 10 - - - -
28/08:30pm 10.7 SW 6 10 1034.5 - 0.0 - Cloudy 10 - - - -
28/08:00pm 10.7 SW 6 8 1034.4 - 0.0 - Cloudy 10 - - - -
28/07:30pm 11.1 WSW 6 10 1034.3 - 0.0 - Cloudy 10 - - - -
28/07:00pm 11.1 WSW 6 7 1034.2 - 0.0 - Cloudy 10 - - - -
28/06:30pm 11.3 WSW 8 11 1033.9 - 0.0 - Cloudy 10 - - - -
28/06:00pm 11.4 WSW 9 12 1033.6 - 0.0 - Cloudy 10 - - - -
28/05:30pm 11.4 W 8 11 1033.4 - 0.0 - Cloudy 10 - - - -
28/05:00pm 11.4 WSW 5 7 1033.3 - 0.0 - Cloudy 10 - - - -

Other Formats:

Comma delimited format used in spreadsheet applications
http://www.bom.gov.au/fwo/IDV60701/IDV60701.94828.axf

JavaScript Object Notation format (JSON) in row-major order
http://www.bom.gov.au/fwo/IDV60701/IDV60701.94828.json